Time;durP1;ratioP1;P1;durP2;ratioP2;P2;SDS_P1;SDS_P2;PMS_P1;PMS_P2;Temp;Humidity;BMP_temperature;BMP_pressure;BME280_temperature;BME280_humidity;BME280_pressure;Samples;Min_cycle;Max_cycle;Signal;HPM_P1;HPM_P2
2023/06/10 00:02:03;;;;;;;;;;;18.30;94.20;;;;;;5110859;28;20419;-43
2023/06/10 00:04:29;;;;;;;;;;;18.30;94.20;;;;;;5109987;28;19956;-43
2023/06/10 00:06:55;;;;;;;;;;;18.30;94.20;;;;;;5110897;28;19915;-42
2023/06/10 00:09:21;;;;;;;;;;;18.20;94.00;;;;;;5110738;28;19914;-42
2023/06/10 00:11:46;;;;;;;;;;;18.20;94.40;;;;;;5110276;28;19912;-42
2023/06/10 00:14:12;;;;;;;;;;;18.20;94.60;;;;;;5110242;28;20381;-44
2023/06/10 00:16:38;;;;;;;;;;;18.20;94.60;;;;;;5110711;28;19920;-44
2023/06/10 00:19:04;;;;;;;;;;;18.10;94.70;;;;;;5109729;28;20384;-41
2023/06/10 00:21:37;;;;;;;;;;;18.10;94.40;;;;;;5110755;28;20242;-42
2023/06/10 00:24:11;;;;;;;;;;;18.10;94.70;;;;;;5110616;28;19907;-42
2023/06/10 00:26:37;;;;;;;;;;;18.00;94.40;;;;;;5110775;28;19994;-43
2023/06/10 00:29:03;;;;;;;;;;;18.00;94.70;;;;;;5110652;28;20272;-43
2023/06/10 00:31:28;;;;;;;;;;;17.90;94.90;;;;;;5109895;28;19995;-43
2023/06/10 00:33:54;;;;;;;;;;;17.90;94.90;;;;;;5110897;28;19908;-41
2023/06/10 00:36:20;;;;;;;;;;;17.90;95.20;;;;;;5113290;28;20263;-42
2023/06/10 00:38:45;;;;;;;;;;;17.90;95.10;;;;;;5113766;28;20366;-42
2023/06/10 00:41:11;;;;;;;;;;;17.90;95.30;;;;;;5114207;28;19908;-43
2023/06/10 00:43:36;;;;;;;;;;;17.80;95.70;;;;;;5114575;28;20248;-43
2023/06/10 00:46:02;;;;;;;;;;;17.80;95.60;;;;;;5113674;28;19911;-44
2023/06/10 00:48:28;;;;;;;;;;;17.70;95.80;;;;;;5114318;28;20445;-45
2023/06/10 00:50:54;;;;;;;;;;;17.80;96.00;;;;;;5114523;28;19907;-42
2023/06/10 00:53:20;;;;;;;;;;;17.70;95.80;;;;;;5113271;28;19919;-43
2023/06/10 00:55:46;;;;;;;;;;;17.70;95.90;;;;;;5114219;28;19919;-46
2023/06/10 00:58:12;;;;;;;;;;;17.70;96.20;;;;;;5113765;28;20349;-44
2023/06/10 01:00:37;;;;;;;;;;;17.70;96.00;;;;;;5113595;28;19953;-42
2023/06/10 01:03:07;;;;;;;;;;;17.60;96.10;;;;;;5114159;28;19912;-43
2023/06/10 01:05:33;;;;;;;;;;;17.70;96.20;;;;;;5114030;28;19908;-43
2023/06/10 01:08:02;;;;;;;;;;;17.60;96.10;;;;;;5113537;28;19915;-42
2023/06/10 01:10:32;;;;;;;;;;;17.60;96.10;;;;;;5113783;28;20174;-42
2023/06/10 01:13:02;;;;;;;;;;;17.60;96.20;;;;;;5114157;28;19930;-45
2023/06/10 01:15:28;;;;;;;;;;;17.60;96.40;;;;;;5112410;28;19919;-42
2023/06/10 01:17:54;;;;;;;;;;;17.50;96.40;;;;;;5113841;28;19960;-44
2023/06/10 01:20:20;;;;;;;;;;;17.50;96.30;;;;;;5112856;28;19954;-43
2023/06/10 01:22:47;;;;;;;;;;;17.50;96.50;;;;;;5113623;28;19965;-42
2023/06/10 01:25:13;;;;;;;;;;;17.50;96.30;;;;;;5113449;28;20343;-43
2023/06/10 01:27:40;;;;;;;;;;;17.50;96.30;;;;;;5112741;28;19922;-42
2023/06/10 01:30:13;;;;;;;;;;;17.50;96.40;;;;;;5113554;28;19920;-43
2023/06/10 01:32:40;;;;;;;;;;;17.40;96.10;;;;;;5113886;28;19908;-44
2023/06/10 01:35:07;;;;;;;;;;;17.40;96.30;;;;;;5112472;28;20022;-42
2023/06/10 01:37:33;;;;;;;;;;;17.30;96.70;;;;;;5113046;28;20611;-43
2023/06/10 01:39:59;;;;;;;;;;;17.30;96.60;;;;;;5113492;28;20239;-42
2023/06/10 01:42:25;;;;;;;;;;;17.30;96.30;;;;;;5112280;28;20244;-42
2023/06/10 01:44:50;;;;;;;;;;;17.30;96.60;;;;;;5113168;28;19914;-42
2023/06/10 01:47:16;;;;;;;;;;;17.20;96.80;;;;;;5112666;28;20385;-43
2023/06/10 01:49:42;;;;;;;;;;;17.20;96.70;;;;;;5112586;28;19908;-41
2023/06/10 01:52:07;;;;;;;;;;;17.10;96.80;;;;;;5112997;28;20113;-43
2023/06/10 01:54:34;;;;;;;;;;;17.10;96.90;;;;;;5113007;28;19916;-43
2023/06/10 01:57:01;;;;;;;;;;;17.10;96.90;;;;;;5111847;28;20369;-42
2023/06/10 01:59:26;;;;;;;;;;;17.00;97.00;;;;;;5112951;28;19914;-43
2023/06/10 02:01:52;;;;;;;;;;;17.00;97.20;;;;;;5113091;28;19908;-42
2023/06/10 02:04:17;;;;;;;;;;;17.00;97.20;;;;;;5111808;28;19908;-43
2023/06/10 02:06:43;;;;;;;;;;;17.00;97.00;;;;;;5112955;28;19908;-42
2023/06/10 02:09:08;;;;;;;;;;;16.90;97.20;;;;;;5112538;28;19912;-41
2023/06/10 02:11:34;;;;;;;;;;;16.90;97.30;;;;;;5111863;28;19915;-48
2023/06/10 02:13:59;;;;;;;;;;;16.90;97.40;;;;;;5112937;28;19914;-44
2023/06/10 02:16:25;;;;;;;;;;;16.80;97.10;;;;;;5111806;28;20267;-43
2023/06/10 02:18:50;;;;;;;;;;;16.80;97.20;;;;;;5111913;28;19952;-42
2023/06/10 02:21:16;;;;;;;;;;;16.80;97.40;;;;;;5112111;28;19916;-47
2023/06/10 02:23:41;;;;;;;;;;;16.80;97.30;;;;;;5111671;28;20053;-43
2023/06/10 02:26:06;;;;;;;;;;;16.80;97.40;;;;;;5112385;28;19918;-43
2023/06/10 02:28:32;;;;;;;;;;;16.70;97.40;;;;;;5112348;28;20351;-41
2023/06/10 02:30:58;;;;;;;;;;;16.70;97.10;;;;;;5111789;28;19916;-43
2023/06/10 02:33:24;;;;;;;;;;;16.70;97.00;;;;;;5112106;28;19907;-42
2023/06/10 02:35:50;;;;;;;;;;;16.60;97.00;;;;;;5111701;28;20123;-42
2023/06/10 02:38:16;;;;;;;;;;;16.60;97.10;;;;;;5110693;28;19966;-42
2023/06/10 02:40:42;;;;;;;;;;;16.60;97.30;;;;;;5112394;28;19969;-42
2023/06/10 02:43:08;;;;;;;;;;;16.50;97.30;;;;;;5112066;28;19911;-43
2023/06/10 02:45:34;;;;;;;;;;;16.50;97.50;;;;;;5111138;28;20369;-43
2023/06/10 02:47:59;;;;;;;;;;;16.50;97.50;;;;;;5112275;28;19965;-43
2023/06/10 02:50:25;;;;;;;;;;;16.40;97.50;;;;;;5111824;28;19975;-43
2023/06/10 02:52:50;;;;;;;;;;;16.40;97.60;;;;;;5111372;28;19908;-42
2023/06/10 02:55:16;;;;;;;;;;;16.40;97.80;;;;;;5111670;28;20377;-44
2023/06/10 02:57:41;;;;;;;;;;;16.30;97.90;;;;;;5110904;28;20018;-43
2023/06/10 03:00:10;;;;;;;;;;;16.30;98.00;;;;;;5111146;28;20282;-43
2023/06/10 03:02:37;;;;;;;;;;;16.20;98.10;;;;;;5111923;28;19908;-42
2023/06/10 03:05:03;;;;;;;;;;;16.20;98.20;;;;;;5111679;28;19994;-43
2023/06/10 03:07:28;;;;;;;;;;;16.10;98.40;;;;;;5110708;28;20000;-44
2023/06/10 03:09:54;;;;;;;;;;;16.10;98.60;;;;;;5111737;28;19915;-43
2023/06/10 03:12:19;;;;;;;;;;;16.10;98.50;;;;;;5111633;28;19912;-42
2023/06/10 03:14:44;;;;;;;;;;;16.00;98.60;;;;;;5111067;28;19908;-42
2023/06/10 03:17:10;;;;;;;;;;;16.00;98.80;;;;;;5111455;28;19916;-43
2023/06/10 03:19:37;;;;;;;;;;;16.00;99.00;;;;;;5111574;28;19912;-42
2023/06/10 03:22:13;;;;;;;;;;;15.90;99.20;;;;;;5110599;28;19915;-43
2023/06/10 03:24:43;;;;;;;;;;;15.90;99.10;;;;;;5111492;28;20324;-44
2023/06/10 03:27:11;;;;;;;;;;;15.90;99.40;;;;;;5110190;28;20006;-41
2023/06/10 03:29:37;;;;;;;;;;;15.80;99.50;;;;;;5111269;28;19919;-43
2023/06/10 03:32:03;;;;;;;;;;;15.80;99.60;;;;;;5111170;28;19908;-43
2023/06/10 03:34:29;;;;;;;;;;;15.80;99.80;;;;;;5110632;28;19908;-42
2023/06/10 03:36:55;;;;;;;;;;;15.80;99.90;;;;;;5111014;28;19924;-42
2023/06/10 03:39:21;;;;;;;;;;;15.70;99.90;;;;;;5110922;28;19961;-43
2023/06/10 03:41:46;;;;;;;;;;;15.70;99.90;;;;;;5110716;28;20446;-42
2023/06/10 03:44:12;;;;;;;;;;;15.70;99.90;;;;;;5110937;28;19908;-42
2023/06/10 03:46:38;;;;;;;;;;;15.70;99.90;;;;;;5111074;28;20374;-45
2023/06/10 03:49:03;;;;;;;;;;;15.70;99.90;;;;;;5110691;28;19963;-43
2023/06/10 03:51:29;;;;;;;;;;;15.70;99.90;;;;;;5110949;28;19908;-43
2023/06/10 03:53:54;;;;;;;;;;;15.70;99.90;;;;;;5111224;28;19908;-44
2023/06/10 03:56:20;;;;;;;;;;;15.60;99.90;;;;;;5109830;28;19915;-46
2023/06/10 03:58:45;;;;;;;;;;;15.60;99.90;;;;;;5111043;28;19927;-43
2023/06/10 04:01:13;;;;;;;;;;;15.60;99.90;;;;;;5110700;28;20418;-42
2023/06/10 04:03:39;;;;;;;;;;;15.60;99.90;;;;;;5110301;28;20282;-42
2023/06/10 04:06:04;;;;;;;;;;;15.60;99.90;;;;;;5110855;28;19971;-42
2023/06/10 04:08:31;;;;;;;;;;;15.60;99.90;;;;;;5111168;28;20113;-44
2023/06/10 04:10:57;;;;;;;;;;;15.60;99.90;;;;;;5114523;28;19911;-42
2023/06/10 04:13:23;;;;;;;;;;;15.60;99.90;;;;;;5114906;28;19935;-42
2023/06/10 04:15:48;;;;;;;;;;;15.60;99.90;;;;;;5115154;28;20380;-42
2023/06/10 04:18:14;;;;;;;;;;;15.60;99.90;;;;;;5114072;28;19923;-45
2023/06/10 04:20:39;;;;;;;;;;;15.60;99.90;;;;;;5115220;28;20298;-42
2023/06/10 04:23:04;;;;;;;;;;;15.60;99.90;;;;;;5115105;28;19915;-43
2023/06/10 04:25:30;;;;;;;;;;;15.60;99.90;;;;;;5114101;28;19972;-42
2023/06/10 04:27:56;;;;;;;;;;;15.70;99.90;;;;;;5114947;28;19987;-44
2023/06/10 04:30:21;;;;;;;;;;;15.70;99.90;;;;;;5113706;28;19950;-42
2023/06/10 04:32:47;;;;;;;;;;;15.70;99.90;;;;;;5114747;28;19953;-44
2023/06/10 04:35:13;;;;;;;;;;;15.70;99.90;;;;;;5114105;28;20369;-42
2023/06/10 04:37:39;;;;;;;;;;;15.70;99.90;;;;;;5114221;28;19915;-42
2023/06/10 04:40:05;;;;;;;;;;;15.70;99.90;;;;;;5114844;28;19907;-42
2023/06/10 04:42:31;;;;;;;;;;;15.70;99.90;;;;;;5114648;28;20278;-41
2023/06/10 04:44:57;;;;;;;;;;;15.70;99.90;;;;;;5114236;28;19933;-43
2023/06/10 04:47:23;;;;;;;;;;;15.70;99.90;;;;;;5114198;28;20027;-43
2023/06/10 04:49:48;;;;;;;;;;;15.70;99.90;;;;;;5114847;28;20387;-43
2023/06/10 04:52:13;;;;;;;;;;;15.70;99.90;;;;;;5113761;28;19908;-43
2023/06/10 04:54:39;;;;;;;;;;;15.70;99.90;;;;;;5114834;28;19912;-42
2023/06/10 04:57:07;;;;;;;;;;;15.80;99.90;;;;;;5096092;28;19960;-41
2023/06/10 04:59:33;;;;;;;;;;;15.80;99.90;;;;;;5113790;28;19908;-44
2023/06/10 05:01:58;;;;;;;;;;;15.80;99.90;;;;;;5114601;28;19908;-43
2023/06/10 05:04:24;;;;;;;;;;;15.90;99.90;;;;;;5114220;28;19908;-41
2023/06/10 05:06:49;;;;;;;;;;;15.90;99.90;;;;;;5114059;28;19926;-43
2023/06/10 05:09:15;;;;;;;;;;;15.90;99.90;;;;;;5114160;28;19979;-43
2023/06/10 05:11:40;;;;;;;;;;;15.90;99.90;;;;;;5114308;28;19907;-43
2023/06/10 05:14:06;;;;;;;;;;;16.00;99.90;;;;;;5113100;28;20285;-44
2023/06/10 05:16:31;;;;;;;;;;;16.00;99.90;;;;;;5114099;28;19916;-42
2023/06/10 05:18:57;;;;;;;;;;;16.00;99.90;;;;;;5113990;28;20378;-42
2023/06/10 05:21:23;;;;;;;;;;;16.00;99.90;;;;;;5112359;28;19999;-44
2023/06/10 05:23:48;;;;;;;;;;;16.10;99.90;;;;;;5114183;28;20423;-45
2023/06/10 05:26:14;;;;;;;;;;;16.10;99.90;;;;;;5109212;28;19912;-44
2023/06/10 05:28:39;;;;;;;;;;;16.10;99.90;;;;;;5103047;28;19915;-44
2023/06/10 05:31:05;;;;;;;;;;;16.10;99.90;;;;;;5099995;28;19934;-42
2023/06/10 05:33:30;;;;;;;;;;;16.20;99.90;;;;;;5112577;28;19916;-42
2023/06/10 05:35:56;;;;;;;;;;;16.20;99.90;;;;;;5113360;28;20056;-43
2023/06/10 05:38:21;;;;;;;;;;;16.20;99.90;;;;;;5113120;28;20347;-43
2023/06/10 05:40:46;;;;;;;;;;;16.30;99.90;;;;;;5113018;28;19911;-45
2023/06/10 05:43:12;;;;;;;;;;;16.30;99.90;;;;;;5113349;28;20393;-44
2023/06/10 05:45:37;;;;;;;;;;;16.40;99.90;;;;;;5113745;28;19995;-42
2023/06/10 05:48:03;;;;;;;;;;;16.40;99.90;;;;;;5112908;28;19990;-44
2023/06/10 05:50:29;;;;;;;;;;;16.40;99.90;;;;;;5107398;28;19915;-45
2023/06/10 05:52:54;;;;;;;;;;;16.50;99.90;;;;;;5113436;28;19912;-42
2023/06/10 05:55:20;;;;;;;;;;;16.50;99.90;;;;;;5112399;28;20426;-43
2023/06/10 05:57:45;;;;;;;;;;;16.60;99.90;;;;;;5112958;28;19923;-44
2023/06/10 06:00:11;;;;;;;;;;;16.60;99.90;;;;;;5112979;28;19907;-41
2023/06/10 06:02:37;;;;;;;;;;;16.60;99.90;;;;;;5112724;28;19912;-43
2023/06/10 06:05:02;;;;;;;;;;;16.70;99.90;;;;;;5112899;28;19943;-49
2023/06/10 06:07:28;;;;;;;;;;;16.80;99.90;;;;;;5113135;28;19917;-44
2023/06/10 06:09:53;;;;;;;;;;;16.80;99.90;;;;;;5112830;28;19916;-45
2023/06/10 06:12:18;;;;;;;;;;;16.80;99.90;;;;;;5112467;28;19914;-43
2023/06/10 06:14:44;;;;;;;;;;;16.90;99.90;;;;;;5113067;28;19908;-43
2023/06/10 06:17:10;;;;;;;;;;;16.90;99.90;;;;;;5112362;28;19939;-43
2023/06/10 06:19:35;;;;;;;;;;;17.00;99.90;;;;;;5113079;28;19908;-42
2023/06/10 06:22:01;;;;;;;;;;;17.00;99.90;;;;;;5113006;28;19933;-43
2023/06/10 06:24:26;;;;;;;;;;;17.10;99.90;;;;;;5111769;28;19919;-42
2023/06/10 06:26:52;;;;;;;;;;;17.20;99.90;;;;;;5111932;28;20043;-43
2023/06/10 06:29:17;;;;;;;;;;;17.20;99.90;;;;;;5110899;28;19919;-43
2023/06/10 06:31:43;;;;;;;;;;;17.20;99.90;;;;;;5111445;28;19912;-44
2023/06/10 06:34:08;;;;;;;;;;;17.30;99.90;;;;;;5112928;28;19990;-42
2023/06/10 06:36:34;;;;;;;;;;;17.30;99.90;;;;;;5111840;28;19985;-44
2023/06/10 06:38:59;;;;;;;;;;;17.40;99.90;;;;;;5111912;28;19935;-43
2023/06/10 06:41:28;;;;;;;;;;;17.50;99.90;;;;;;5111649;28;19911;-42
2023/06/10 06:43:54;;;;;;;;;;;17.50;99.90;;;;;;5111436;28;19915;-44
2023/06/10 06:46:19;;;;;;;;;;;17.50;99.90;;;;;;5111991;28;19919;-43
2023/06/10 06:48:45;;;;;;;;;;;17.60;99.90;;;;;;5112185;28;20259;-42
2023/06/10 06:51:10;;;;;;;;;;;17.70;99.90;;;;;;5105431;28;20010;-50
2023/06/10 06:53:36;;;;;;;;;;;17.70;99.90;;;;;;5112300;28;19930;-43
2023/06/10 06:56:02;;;;;;;;;;;17.70;99.90;;;;;;5111975;28;20397;-44
2023/06/10 06:58:28;;;;;;;;;;;17.80;99.90;;;;;;5111139;28;20378;-43
2023/06/10 07:00:53;;;;;;;;;;;17.80;99.90;;;;;;5112028;28;19908;-43
2023/06/10 07:03:19;;;;;;;;;;;17.90;99.90;;;;;;5110851;28;20338;-44
2023/06/10 07:05:44;;;;;;;;;;;17.90;99.90;;;;;;5106249;28;19919;-45
2023/06/10 07:08:11;;;;;;;;;;;18.00;99.90;;;;;;5102831;28;20020;-43
2023/06/10 07:10:37;;;;;;;;;;;18.00;99.90;;;;;;5102344;28;20397;-42
2023/06/10 07:13:02;;;;;;;;;;;18.10;99.90;;;;;;5126461;27;19912;-43
2023/06/10 07:15:28;;;;;;;;;;;18.10;99.90;;;;;;5129641;27;19952;-44
2023/06/10 07:17:53;;;;;;;;;;;18.20;99.90;;;;;;5129694;27;19923;-42
2023/06/10 07:20:19;;;;;;;;;;;18.20;99.90;;;;;;5131232;27;19907;-44
2023/06/10 07:22:44;;;;;;;;;;;18.30;99.90;;;;;;5131805;27;19911;-42
2023/06/10 07:25:10;;;;;;;;;;;18.40;99.90;;;;;;5131842;27;20299;-43
2023/06/10 07:27:36;;;;;;;;;;;18.40;99.90;;;;;;5129521;27;19917;-44
2023/06/10 07:30:03;;;;;;;;;;;18.40;99.90;;;;;;5131409;27;20002;-43
2023/06/10 07:32:28;;;;;;;;;;;18.50;99.90;;;;;;5129491;27;19972;-43
2023/06/10 07:34:54;;;;;;;;;;;18.50;99.90;;;;;;5127047;27;19912;-42
2023/06/10 07:37:19;;;;;;;;;;;18.60;99.90;;;;;;5131247;27;19919;-44
2023/06/10 07:39:45;;;;;;;;;;;18.60;99.90;;;;;;5131409;27;20334;-45
2023/06/10 07:42:10;;;;;;;;;;;18.70;99.90;;;;;;5130734;27;19908;-44
2023/06/10 07:44:36;;;;;;;;;;;18.80;99.90;;;;;;5131521;27;20016;-43
2023/06/10 07:47:02;;;;;;;;;;;18.90;99.90;;;;;;5131922;27;20354;-44
2023/06/10 07:49:27;;;;;;;;;;;18.90;99.90;;;;;;5128594;27;19918;-45
2023/06/10 07:51:53;;;;;;;;;;;19.00;99.90;;;;;;5132092;28;19967;-43
2023/06/10 07:54:19;;;;;;;;;;;19.10;99.90;;;;;;5129318;28;19953;-45
2023/06/10 07:56:45;;;;;;;;;;;19.10;99.90;;;;;;5131650;28;19916;-43
2023/06/10 07:59:10;;;;;;;;;;;19.20;99.90;;;;;;5131464;28;19907;-60
2023/06/10 08:01:38;;;;;;;;;;;19.30;99.90;;;;;;5130020;28;20068;-43
2023/06/10 08:04:03;;;;;;;;;;;19.30;99.90;;;;;;5128430;28;19911;-44
2023/06/10 08:06:29;;;;;;;;;;;19.40;99.90;;;;;;5131335;28;19908;-44
2023/06/10 08:08:54;;;;;;;;;;;19.40;99.90;;;;;;5131962;27;20230;-42
2023/06/10 08:11:20;;;;;;;;;;;19.50;99.90;;;;;;5136364;27;19912;-45
2023/06/10 08:13:46;;;;;;;;;;;19.60;99.90;;;;;;5129932;28;19918;-43
2023/06/10 08:16:11;;;;;;;;;;;19.70;99.90;;;;;;5130149;28;19950;-45
2023/06/10 08:18:36;;;;;;;;;;;19.80;99.90;;;;;;5131454;28;19916;-46
2023/06/10 08:21:02;;;;;;;;;;;19.90;99.90;;;;;;5126687;28;20388;-44
2023/06/10 08:23:27;;;;;;;;;;;20.00;99.90;;;;;;5128605;28;19960;-43
2023/06/10 08:25:53;;;;;;;;;;;20.00;99.90;;;;;;5125067;27;19917;-47
2023/06/10 08:28:18;;;;;;;;;;;20.10;99.90;;;;;;5119733;28;20297;-43
2023/06/10 08:30:44;;;;;;;;;;;20.20;99.90;;;;;;5126522;28;19914;-44
2023/06/10 08:33:09;;;;;;;;;;;20.40;99.90;;;;;;5132674;27;19954;-43
2023/06/10 08:35:35;;;;;;;;;;;20.50;99.90;;;;;;5122812;27;19925;-43
2023/06/10 08:38:00;;;;;;;;;;;20.60;99.90;;;;;;5134692;27;19916;-42
2023/06/10 08:40:26;;;;;;;;;;;20.70;99.90;;;;;;5132966;27;19926;-43
2023/06/10 08:43:05;;;;;;;;;;;20.70;99.90;;;;;;5127750;27;19945;-45
2023/06/10 08:45:31;;;;;;;;;;;20.80;99.90;;;;;;5117163;28;20446;-44
2023/06/10 08:47:57;;;;;;;;;;;21.00;99.90;;;;;;5128741;28;20293;-44
2023/06/10 08:50:23;;;;;;;;;;;21.10;99.90;;;;;;5128960;28;19916;-43
2023/06/10 08:52:50;;;;;;;;;;;21.10;99.90;;;;;;5128357;28;19913;-42
2023/06/10 08:55:19;;;;;;;;;;;21.10;99.30;;;;;;5129504;27;19912;-43
2023/06/10 08:57:45;;;;;;;;;;;21.20;99.00;;;;;;5133889;27;19916;-43
2023/06/10 09:00:11;;;;;;;;;;;21.30;98.70;;;;;;5131644;27;19934;-52
2023/06/10 09:02:37;;;;;;;;;;;21.40;98.40;;;;;;5132472;27;19991;-44
2023/06/10 09:05:03;;;;;;;;;;;21.40;98.20;;;;;;5133653;27;19919;-44
2023/06/10 09:07:31;;;;;;;;;;;21.50;98.40;;;;;;5133646;27;20414;-44
2023/06/10 09:09:57;;;;;;;;;;;21.70;98.50;;;;;;5134623;27;19908;-47
2023/06/10 09:12:22;;;;;;;;;;;21.80;98.80;;;;;;5131921;27;19916;-43
2023/06/10 09:14:48;;;;;;;;;;;21.90;98.10;;;;;;5134367;27;19907;-42
2023/06/10 09:17:13;;;;;;;;;;;22.00;97.20;;;;;;5133743;27;20010;-45
2023/06/10 09:19:40;;;;;;;;;;;22.10;97.20;;;;;;5132408;27;19918;-45
2023/06/10 09:22:05;;;;;;;;;;;22.10;95.90;;;;;;5133721;27;19911;-43
2023/06/10 09:24:31;;;;;;;;;;;22.10;95.70;;;;;;5133495;27;20266;-43
2023/06/10 09:27:06;;;;;;;;;;;22.30;96.30;;;;;;5133639;27;20431;-44
2023/06/10 09:29:44;;;;;;;;;;;22.30;96.20;;;;;;5132080;27;19965;-43
2023/06/10 09:32:10;;;;;;;;;;;22.40;95.90;;;;;;5133459;27;19912;-44
2023/06/10 09:34:36;;;;;;;;;;;22.50;95.10;;;;;;5132701;27;19918;-44
2023/06/10 09:37:01;;;;;;;;;;;22.60;96.10;;;;;;5133655;27;19919;-43
2023/06/10 09:39:27;;;;;;;;;;;22.70;95.40;;;;;;5132142;27;19949;-45
2023/06/10 09:41:52;;;;;;;;;;;22.90;95.10;;;;;;5129460;27;19912;-49
2023/06/10 09:44:19;;;;;;;;;;;23.00;94.20;;;;;;5132399;27;19942;-45
2023/06/10 09:46:46;;;;;;;;;;;23.00;92.80;;;;;;5132962;27;19972;-52
2023/06/10 09:49:11;;;;;;;;;;;23.10;92.60;;;;;;5131098;27;19947;-44
2023/06/10 09:51:37;;;;;;;;;;;23.10;92.20;;;;;;5129253;27;19959;-45
2023/06/10 09:54:03;;;;;;;;;;;23.20;92.30;;;;;;5132545;27;19911;-47
2023/06/10 09:56:35;;;;;;;;;;;23.30;92.90;;;;;;5131560;27;20353;-47
2023/06/10 09:59:01;;;;;;;;;;;23.40;92.40;;;;;;5133090;27;19946;-48
2023/06/10 10:01:26;;;;;;;;;;;23.50;92.10;;;;;;5130787;27;19947;-44
2023/06/10 10:03:52;;;;;;;;;;;23.60;92.20;;;;;;5131949;27;19915;-44
2023/06/10 10:06:18;;;;;;;;;;;23.70;91.70;;;;;;5132162;27;20380;-44
2023/06/10 10:08:48;;;;;;;;;;;23.70;91.30;;;;;;5132364;27;19918;-44
2023/06/10 10:11:14;;;;;;;;;;;23.80;91.00;;;;;;5132803;27;20001;-43
2023/06/10 10:13:40;;;;;;;;;;;23.80;89.50;;;;;;5131574;27;19934;-45
2023/06/10 10:16:10;;;;;;;;;;;23.80;89.30;;;;;;5132684;27;19915;-43
2023/06/10 10:18:36;;;;;;;;;;;23.90;87.10;;;;;;5133607;27;19972;-43
2023/06/10 10:21:05;;;;;;;;;;;24.00;88.70;;;;;;5132590;27;20006;-48
2023/06/10 10:23:42;;;;;;;;;;;24.00;89.00;;;;;;5131272;27;19916;-45
2023/06/10 10:26:09;;;;;;;;;;;24.20;86.80;;;;;;5131996;27;19919;-49
2023/06/10 10:28:41;;;;;;;;;;;24.20;89.00;;;;;;5131278;27;19911;-44
2023/06/10 10:31:10;;;;;;;;;;;24.40;85.40;;;;;;5130877;27;20357;-45
2023/06/10 10:33:38;;;;;;;;;;;24.50;85.30;;;;;;5131962;27;19952;-48
2023/06/10 10:36:04;;;;;;;;;;;24.50;86.10;;;;;;5131601;27;20421;-46
2023/06/10 10:38:30;;;;;;;;;;;24.60;87.20;;;;;;5132202;27;19916;-47
2023/06/10 10:40:59;;;;;;;;;;;24.70;85.00;;;;;;5132237;27;20392;-43
2023/06/10 10:43:25;;;;;;;;;;;24.80;83.60;;;;;;5131794;27;19907;-43
2023/06/10 10:46:00;;;;;;;;;;;24.80;82.50;;;;;;5132722;27;20069;-44
2023/06/10 10:48:29;;;;;;;;;;;24.90;81.30;;;;;;5131842;27;19915;-43
2023/06/10 10:50:58;;;;;;;;;;;25.00;82.00;;;;;;5131471;27;19961;-46
2023/06/10 10:53:25;;;;;;;;;;;25.00;78.60;;;;;;5131997;27;19919;-47
2023/06/10 10:56:13;;;;;;;;;;;25.00;76.60;;;;;;5132148;27;20299;-43
2023/06/10 10:58:39;;;;;;;;;;;25.00;77.70;;;;;;5117626;27;19920;-44
2023/06/10 11:01:12;;;;;;;;;;;25.10;77.50;;;;;;5132255;27;20251;-46
2023/06/10 11:03:43;;;;;;;;;;;25.20;76.50;;;;;;5132204;27;19957;-47
2023/06/10 11:06:12;;;;;;;;;;;25.50;78.50;;;;;;5131338;27;19907;-43
2023/06/10 11:08:40;;;;;;;;;;;25.60;76.10;;;;;;5132205;27;19962;-43
2023/06/10 11:11:22;;;;;;;;;;;25.70;77.00;;;;;;5132362;27;19907;-43
2023/06/10 11:13:57;;;;;;;;;;;25.70;76.00;;;;;;5132303;27;19907;-45
2023/06/10 11:16:25;;;;;;;;;;;25.80;74.50;;;;;;5131485;27;19938;-46
2023/06/10 11:18:53;;;;;;;;;;;25.90;71.20;;;;;;5130690;27;19922;-43
2023/06/10 11:21:19;;;;;;;;;;;26.00;72.80;;;;;;5131701;27;19907;-45
2023/06/10 11:23:44;;;;;;;;;;;26.10;70.70;;;;;;5131784;27;19907;-44
2023/06/10 11:26:26;;;;;;;;;;;26.10;70.70;;;;;;5131081;27;20350;-43
2023/06/10 11:28:55;;;;;;;;;;;26.10;71.50;;;;;;5131925;27;19911;-44
2023/06/10 11:31:24;;;;;;;;;;;26.20;72.10;;;;;;5131437;27;19915;-43
2023/06/10 11:33:52;;;;;;;;;;;26.20;73.10;;;;;;5131149;27;19919;-43
2023/06/10 11:36:18;;;;;;;;;;;26.20;70.50;;;;;;5130872;27;20010;-45
2023/06/10 11:38:45;;;;;;;;;;;26.20;71.40;;;;;;5130752;27;20293;-44
2023/06/10 11:41:11;;;;;;;;;;;26.20;71.30;;;;;;5130559;27;20006;-48
2023/06/10 11:43:37;;;;;;;;;;;26.30;72.20;;;;;;5131483;27;19929;-44
2023/06/10 11:46:02;;;;;;;;;;;26.60;72.50;;;;;;5131457;27;20253;-45
2023/06/10 11:48:30;;;;;;;;;;;26.70;72.50;;;;;;5130499;27;19907;-44
2023/06/10 11:50:55;;;;;;;;;;;26.70;71.00;;;;;;5131078;27;19911;-45
2023/06/10 11:53:21;;;;;;;;;;;26.70;68.90;;;;;;5130562;28;19960;-51
2023/06/10 11:55:47;;;;;;;;;;;26.70;68.00;;;;;;5131464;28;19914;-44
2023/06/10 11:58:15;;;;;;;;;;;26.70;68.30;;;;;;5130600;28;19923;-44
2023/06/10 12:00:48;;;;;;;;;;;26.70;67.20;;;;;;5131063;28;20098;-44
2023/06/10 12:03:13;;;;;;;;;;;26.60;68.50;;;;;;5131133;28;19908;-44
2023/06/10 12:05:39;;;;;;;;;;;26.60;66.30;;;;;;5131549;28;19994;-44
2023/06/10 12:08:07;;;;;;;;;;;26.60;67.60;;;;;;5130593;28;19908;-44
2023/06/10 12:10:38;;;;;;;;;;;26.70;69.10;;;;;;5130350;28;20277;-45
2023/06/10 12:13:04;;;;;;;;;;;26.80;67.10;;;;;;5131274;28;19918;-46
2023/06/10 12:15:30;;;;;;;;;;;27.00;69.00;;;;;;5130424;28;19907;-47
2023/06/10 12:17:56;;;;;;;;;;;27.10;67.20;;;;;;5130053;28;20002;-45
2023/06/10 12:20:26;;;;;;;;;;;27.10;67.60;;;;;;5131773;28;20788;-44
2023/06/10 12:22:51;;;;;;;;;;;27.20;67.10;;;;;;5131972;28;20005;-48
2023/06/10 12:25:16;;;;;;;;;;;27.30;65.30;;;;;;5131662;28;19999;-49
2023/06/10 12:27:52;;;;;;;;;;;27.50;65.40;;;;;;5131816;28;19918;-45
2023/06/10 12:30:21;;;;;;;;;;;27.70;65.50;;;;;;5131914;27;19915;-45
2023/06/10 12:32:47;;;;;;;;;;;28.00;64.90;;;;;;5135871;27;19914;-44
2023/06/10 12:35:19;;;;;;;;;;;28.20;64.70;;;;;;5136588;27;19920;-45
2023/06/10 12:37:55;;;;;;;;;;;28.30;61.80;;;;;;5135486;27;19923;-45
2023/06/10 12:40:25;;;;;;;;;;;28.50;61.10;;;;;;5135050;27;19995;-44
2023/06/10 12:42:51;;;;;;;;;;;28.60;61.70;;;;;;5135009;27;19926;-45
2023/06/10 12:45:26;;;;;;;;;;;28.80;62.80;;;;;;5117016;27;19912;-45
2023/06/10 12:47:51;;;;;;;;;;;29.10;62.20;;;;;;5121420;27;19911;-49
2023/06/10 12:50:16;;;;;;;;;;;29.50;62.10;;;;;;5134172;27;19968;-47
2023/06/10 12:52:42;;;;;;;;;;;29.80;61.40;;;;;;5135817;27;19911;-47
2023/06/10 12:55:08;;;;;;;;;;;30.00;62.20;;;;;;5134513;27;19999;-46
2023/06/10 12:57:33;;;;;;;;;;;30.30;60.10;;;;;;5134760;27;20263;-47
2023/06/10 13:00:03;;;;;;;;;;;30.60;61.20;;;;;;5135563;27;19907;-46
2023/06/10 13:02:29;;;;;;;;;;;30.80;60.00;;;;;;5134944;27;20006;-47
2023/06/10 13:04:54;;;;;;;;;;;30.90;59.50;;;;;;5134823;27;19994;-46
2023/06/10 13:07:20;;;;;;;;;;;31.10;58.00;;;;;;5135324;27;19907;-46
2023/06/10 13:09:48;;;;;;;;;;;31.10;57.10;;;;;;5135862;27;19912;-45
2023/06/10 13:12:14;;;;;;;;;;;31.30;59.40;;;;;;5134105;27;19912;-47
2023/06/10 13:14:39;;;;;;;;;;;31.30;56.50;;;;;;5135741;27;19919;-44
2023/06/10 13:17:07;;;;;;;;;;;31.50;59.20;;;;;;5135498;27;19911;-46
2023/06/10 13:19:33;;;;;;;;;;;31.60;59.40;;;;;;5134275;27;19911;-46
2023/06/10 13:21:58;;;;;;;;;;;31.80;59.50;;;;;;5135207;27;19911;-48
2023/06/10 13:24:24;;;;;;;;;;;31.80;57.70;;;;;;5134959;27;19907;-45
2023/06/10 13:26:49;;;;;;;;;;;32.00;58.10;;;;;;5134767;27;19912;-46
2023/06/10 13:29:15;;;;;;;;;;;32.20;57.90;;;;;;5133940;27;20385;-48
2023/06/10 13:31:41;;;;;;;;;;;32.40;58.10;;;;;;5127240;27;19935;-46
2023/06/10 13:34:06;;;;;;;;;;;32.60;59.10;;;;;;5133224;27;19911;-45
2023/06/10 13:36:32;;;;;;;;;;;32.70;57.80;;;;;;5148432;27;19979;-44
2023/06/10 13:38:57;;;;;;;;;;;32.60;55.70;;;;;;5149319;27;19915;-47
2023/06/10 13:41:23;;;;;;;;;;;32.70;52.40;;;;;;5131573;27;19973;-45
2023/06/10 13:43:48;;;;;;;;;;;32.70;51.40;;;;;;5134994;27;19914;-46
2023/06/10 13:46:14;;;;;;;;;;;32.90;53.70;;;;;;5133671;27;20338;-45
2023/06/10 13:48:39;;;;;;;;;;;33.20;53.80;;;;;;5134753;27;19953;-46
2023/06/10 13:51:06;;;;;;;;;;;33.40;53.90;;;;;;5134734;27;19994;-45
2023/06/10 13:53:31;;;;;;;;;;;33.60;51.90;;;;;;5133361;27;19914;-47
2023/06/10 13:55:57;;;;;;;;;;;33.70;51.80;;;;;;5134370;27;19911;-46
2023/06/10 13:58:22;;;;;;;;;;;33.50;49.50;;;;;;5134257;27;19943;-48
2023/06/10 14:00:48;;;;;;;;;;;33.50;47.80;;;;;;5134033;27;19915;-43
2023/06/10 14:03:13;;;;;;;;;;;33.70;49.80;;;;;;5134233;27;19908;-45
2023/06/10 14:05:38;;;;;;;;;;;33.80;50.00;;;;;;5134433;27;19919;-44
2023/06/10 14:08:04;;;;;;;;;;;33.80;49.00;;;;;;5133901;27;19960;-45
2023/06/10 14:10:30;;;;;;;;;;;33.90;48.50;;;;;;5134360;27;20467;-46
2023/06/10 14:12:55;;;;;;;;;;;33.90;49.70;;;;;;5134589;27;19911;-46